John_paul K — PBHY — position and weather

sailwx.info

Track history (hours):
 
Tides and Currents Weather Stations Pressure Air Temp Water Temp Dewpoint Dewpoint Depression Visibility Wind Speed Wind Dir Waves Ship Positions

John_paul K

Last reported at 2015-May-26 23:33 UTC. Time now 2015-May-28 14:15 UTC.
Position N 40°47' W 009°48'.

Length 90 m; draft 5.9 m.

Type: Cargo ship. MMSI: 245181000.

Date/timePositionNaut miles runAvg speedWind from/ knotsBaromVisibWave heightAir tempDewpointWater temp
2015-May-26 23:33N 40°47' W 009°48'7 7.2
2015-May-26 22:33N 40°40' W 009°48'8 7.4
2015-May-26 21:32N 40°33' W 009°49'7 7.5
2015-May-26 20:33N 40°25' W 009°49'8 7.7
2015-May-26 19:33N 40°18' W 009°48'8 7.9
2015-May-26 18:33N 40°10' W 009°48'8 7.7
2015-May-26 17:33N 40°02' W 009°49'8 7.6
2015-May-26 16:33N 39°54' W 009°49'8 7.5
2015-May-26 15:33N 39°47' W 009°49'8 7.4
2015-May-26 14:32N 39°39' W 009°50'8 7.6
2015-May-26 13:32N 39°32' W 009°49'8 8.3
2015-May-26 12:33N 39°24' W 009°49'8 8.2
2015-May-26 11:33N 39°16' W 009°49'8 7.9
2015-May-26 10:33N 39°08' W 009°49'8 7.9
2015-May-26 09:30N 38°59' W 009°50'7 7.8
2015-May-26 08:33N 38°52' W 009°50'8 7.9
2015-May-26 07:33N 38°44' W 009°50'8 7.7
2015-May-26 06:33N 38°37' W 009°48'8 8.0
2015-May-26 05:33N 38°29' W 009°46'8 8.3
2015-May-26 04:33N 38°21' W 009°43'8 8.1
2015-May-26 03:33N 38°13' W 009°41'8 8.0
2015-May-26 02:33N 38°05' W 009°39'8 8.2
2015-May-26 01:33N 37°57' W 009°36'8 8.3
2015-May-26 00:33N 37°49' W 009°34'8 8.3
2015-May-25 23:33N 37°41' W 009°31'8 8.4
2015-May-25 22:33N 37°33' W 009°29'8 8.3
2015-May-25 21:33N 37°25' W 009°27'8 8.1
2015-May-25 20:33N 37°17' W 009°25'11 8.3
2015-May-25 19:14N 37°06' W 009°22'6 8.4
2015-May-25 18:30N 37°00' W 009°20'12 8.3
2015-May-25 17:03N 36°49' W 009°13'4 8.5
2015-May-25 16:33N 36°46' W 009°09'12 8.7
2015-May-25 15:11N 36°42' W 008°55'6 8.7
2015-May-25 14:33N 36°41' W 008°49'9 8.7
2015-May-25 13:34N 36°39' W 008°38'10 9.0
2015-May-25 12:30N 36°36' W 008°27'142 8.8
2015-May-24 20:24N 35°58' W 005°37'16 8.6
2015-May-24 18:33N 36°04' W 005°19'139 9.1
2015-May-24 03:16N 36°28' W 002°30'  
2015-May-20 17:20N 36°51' E 011°32'27 9.0
2015-May-20 14:20N 36°25' E 011°42'7 9.1
2015-May-20 13:33N 36°19' E 011°44'9 8.8
2015-May-20 12:33N 36°10' E 011°46'9 8.8
2015-May-20 11:33N 36°01' E 011°47'9 8.7
2015-May-20 10:33N 35°52' E 011°48'49 7.8
2015-May-20 04:20N 35°04' E 011°53'7 8.9
2015-May-20 03:32N 34°57' E 011°54'9 8.1
2015-May-20 02:27N 34°48' E 011°52'8 8.6
2015-May-20 01:32N 34°43' E 011°44'9 8.6
2015-May-20 00:28N 34°38' E 011°35'8 8.5
2015-May-19 23:30N 34°34' E 011°26'34 6.3
2015-May-19 18:09N 34°44' E 010°47'0 0.3
2015-May-19 17:33N 34°44' E 010°47'0 0.0
2015-May-19 16:32N 34°44' E 010°47'0 0.0
2015-May-19 15:32N 34°44' E 010°47'0 0.0
2015-May-19 14:32N 34°44' E 010°47'0 0.0
2015-May-19 11:08N 34°44' E 010°47'0 0.0
2015-May-19 10:33N 34°44' E 010°47'  
Track history (hours):
 
Tides and Currents Weather Stations Pressure Air Temp Water Temp Dewpoint Dewpoint Depression Visibility Wind Speed Wind Dir Waves Ship Positions

John_paul K

Last reported at 2015-May-26 23:33 UTC. Time now 2015-May-28 14:15 UTC.
Position N 40°47' W 009°48'.

Length 90 m; draft 5.9 m.

Type: Cargo ship. MMSI: 245181000.

Date/timePositionNaut miles runAvg speedWind from/ knotsBaromVisibWave heightAir tempDewpointWater temp
2015-May-26 23:33N 40°47' W 009°48'7 7.2
2015-May-26 22:33N 40°40' W 009°48'8 7.4
2015-May-26 21:32N 40°33' W 009°49'7 7.5
2015-May-26 20:33N 40°25' W 009°49'8 7.7
2015-May-26 19:33N 40°18' W 009°48'8 7.9
2015-May-26 18:33N 40°10' W 009°48'8 7.7
2015-May-26 17:33N 40°02' W 009°49'8 7.6
2015-May-26 16:33N 39°54' W 009°49'8 7.5
2015-May-26 15:33N 39°47' W 009°49'8 7.4
2015-May-26 14:32N 39°39' W 009°50'8 7.6
2015-May-26 13:32N 39°32' W 009°49'8 8.3
2015-May-26 12:33N 39°24' W 009°49'8 8.2
2015-May-26 11:33N 39°16' W 009°49'8 7.9
2015-May-26 10:33N 39°08' W 009°49'8 7.9
2015-May-26 09:30N 38°59' W 009°50'7 7.8
2015-May-26 08:33N 38°52' W 009°50'8 7.9
2015-May-26 07:33N 38°44' W 009°50'8 7.7
2015-May-26 06:33N 38°37' W 009°48'8 8.0
2015-May-26 05:33N 38°29' W 009°46'8 8.3
2015-May-26 04:33N 38°21' W 009°43'8 8.1
2015-May-26 03:33N 38°13' W 009°41'8 8.0
2015-May-26 02:33N 38°05' W 009°39'8 8.2
2015-May-26 01:33N 37°57' W 009°36'8 8.3
2015-May-26 00:33N 37°49' W 009°34'8 8.3
2015-May-25 23:33N 37°41' W 009°31'8 8.4
2015-May-25 22:33N 37°33' W 009°29'8 8.3
2015-May-25 21:33N 37°25' W 009°27'8 8.1
2015-May-25 20:33N 37°17' W 009°25'11 8.3
2015-May-25 19:14N 37°06' W 009°22'6 8.4
2015-May-25 18:30N 37°00' W 009°20'12 8.3
2015-May-25 17:03N 36°49' W 009°13'4 8.5
2015-May-25 16:33N 36°46' W 009°09'12 8.7
2015-May-25 15:11N 36°42' W 008°55'6 8.7
2015-May-25 14:33N 36°41' W 008°49'9 8.7
2015-May-25 13:34N 36°39' W 008°38'10 9.0
2015-May-25 12:30N 36°36' W 008°27'142 8.8
2015-May-24 20:24N 35°58' W 005°37'16 8.6
2015-May-24 18:33N 36°04' W 005°19'139 9.1
2015-May-24 03:16N 36°28' W 002°30'  
2015-May-20 17:20N 36°51' E 011°32'27 9.0
2015-May-20 14:20N 36°25' E 011°42'7 9.1
2015-May-20 13:33N 36°19' E 011°44'9 8.8
2015-May-20 12:33N 36°10' E 011°46'9 8.8
2015-May-20 11:33N 36°01' E 011°47'9 8.7
2015-May-20 10:33N 35°52' E 011°48'49 7.8
2015-May-20 04:20N 35°04' E 011°53'7 8.9
2015-May-20 03:32N 34°57' E 011°54'9 8.1
2015-May-20 02:27N 34°48' E 011°52'8 8.6
2015-May-20 01:32N 34°43' E 011°44'9 8.6
2015-May-20 00:28N 34°38' E 011°35'8 8.5
2015-May-19 23:30N 34°34' E 011°26'34 6.3
2015-May-19 18:09N 34°44' E 010°47'0 0.3
2015-May-19 17:33N 34°44' E 010°47'0 0.0
2015-May-19 16:32N 34°44' E 010°47'0 0.0
2015-May-19 15:32N 34°44' E 010°47'0 0.0
2015-May-19 14:32N 34°44' E 010°47'0 0.0
2015-May-19 11:08N 34°44' E 010°47'0 0.0
2015-May-19 10:33N 34°44' E 010°47'  

Dump ship's entire track history